sensor_id;sensor_type;location;lat;lon;timestamp;temperature;humidity
14248;DHT22;7208;49.826;6.004;2022-12-18T00:01:20;-8.50;99.90
14248;DHT22;7208;49.826;6.004;2022-12-18T00:03:46;-8.50;99.90
14248;DHT22;7208;49.826;6.004;2022-12-18T00:06:12;-8.40;99.90
14248;DHT22;7208;49.826;6.004;2022-12-18T00:08:39;-8.30;99.90
14248;DHT22;7208;49.826;6.004;2022-12-18T00:11:15;-8.30;99.90
14248;DHT22;7208;49.826;6.004;2022-12-18T00:13:41;-8.20;99.90
14248;DHT22;7208;49.826;6.004;2022-12-18T00:16:09;-8.20;99.90
14248;DHT22;7208;49.826;6.004;2022-12-18T00:18:36;-8.30;99.90
14248;DHT22;7208;49.826;6.004;2022-12-18T00:21:04;-8.30;99.90
14248;DHT22;7208;49.826;6.004;2022-12-18T00:23:30;-8.30;99.90
14248;DHT22;7208;49.826;6.004;2022-12-18T00:26:00;-8.30;99.90
14248;DHT22;7208;49.826;6.004;2022-12-18T00:28:26;-8.10;99.90
14248;DHT22;7208;49.826;6.004;2022-12-18T00:31:00;-8.10;99.90
14248;DHT22;7208;49.826;6.004;2022-12-18T00:33:27;-8.20;99.90
14248;DHT22;7208;49.826;6.004;2022-12-18T00:35:52;-8.20;99.90
14248;DHT22;7208;49.826;6.004;2022-12-18T00:38:18;-8.20;99.90
14248;DHT22;7208;49.826;6.004;2022-12-18T00:40:43;-8.20;99.90
14248;DHT22;7208;49.826;6.004;2022-12-18T00:43:09;-8.10;99.90
14248;DHT22;7208;49.826;6.004;2022-12-18T00:45:35;-8.00;99.90
14248;DHT22;7208;49.826;6.004;2022-12-18T00:48:01;-8.00;99.90
14248;DHT22;7208;49.826;6.004;2022-12-18T00:50:27;-7.90;99.90
14248;DHT22;7208;49.826;6.004;2022-12-18T00:52:52;-7.90;99.90
14248;DHT22;7208;49.826;6.004;2022-12-18T00:55:18;-8.00;99.90
14248;DHT22;7208;49.826;6.004;2022-12-18T00:57:44;-8.10;99.90
14248;DHT22;7208;49.826;6.004;2022-12-18T01:00:12;-8.10;99.90
14248;DHT22;7208;49.826;6.004;2022-12-18T01:02:39;-8.10;99.90
14248;DHT22;7208;49.826;6.004;2022-12-18T01:05:05;-8.20;99.90
14248;DHT22;7208;49.826;6.004;2022-12-18T01:07:31;-8.20;99.90
14248;DHT22;7208;49.826;6.004;2022-12-18T01:09:57;-8.20;99.90
14248;DHT22;7208;49.826;6.004;2022-12-18T01:12:22;-8.20;99.90
14248;DHT22;7208;49.826;6.004;2022-12-18T01:14:48;-7.80;99.90
14248;DHT22;7208;49.826;6.004;2022-12-18T01:17:14;-8.30;99.90
14248;DHT22;7208;49.826;6.004;2022-12-18T01:19:40;-8.30;99.90
14248;DHT22;7208;49.826;6.004;2022-12-18T01:22:05;-8.80;99.90
14248;DHT22;7208;49.826;6.004;2022-12-18T01:24:31;-8.40;99.90
14248;DHT22;7208;49.826;6.004;2022-12-18T01:26:57;-8.40;99.90
14248;DHT22;7208;49.826;6.004;2022-12-18T01:29:23;-8.40;99.90
14248;DHT22;7208;49.826;6.004;2022-12-18T01:31:49;-8.40;99.90
14248;DHT22;7208;49.826;6.004;2022-12-18T01:34:14;-8.30;99.90
14248;DHT22;7208;49.826;6.004;2022-12-18T01:36:40;-8.30;99.90
14248;DHT22;7208;49.826;6.004;2022-12-18T01:39:10;-8.40;99.90
14248;DHT22;7208;49.826;6.004;2022-12-18T01:41:36;-8.40;99.90
14248;DHT22;7208;49.826;6.004;2022-12-18T01:52:47;-8.60;99.90
14248;DHT22;7208;49.826;6.004;2022-12-18T01:55:16;-8.60;99.90
14248;DHT22;7208;49.826;6.004;2022-12-18T01:57:42;-8.50;99.90
14248;DHT22;7208;49.826;6.004;2022-12-18T02:00:12;-8.60;99.90
14248;DHT22;7208;49.826;6.004;2022-12-18T02:02:37;-8.60;99.90
14248;DHT22;7208;49.826;6.004;2022-12-18T02:05:04;-8.50;99.90
14248;DHT22;7208;49.826;6.004;2022-12-18T02:15:25;-8.50;99.90
14248;DHT22;7208;49.826;6.004;2022-12-18T02:18:00;-8.50;99.90
14248;DHT22;7208;49.826;6.004;2022-12-18T02:20:39;-8.60;99.90
14248;DHT22;7208;49.826;6.004;2022-12-18T02:23:18;-8.70;99.90
14248;DHT22;7208;49.826;6.004;2022-12-18T02:28:33;-8.80;99.90
14248;DHT22;7208;49.826;6.004;2022-12-18T02:31:03;-8.90;99.90
14248;DHT22;7208;49.826;6.004;2022-12-18T02:33:30;-8.90;99.90
14248;DHT22;7208;49.826;6.004;2022-12-18T02:35:58;-8.90;99.90
14248;DHT22;7208;49.826;6.004;2022-12-18T02:38:25;-9.00;99.90
14248;DHT22;7208;49.826;6.004;2022-12-18T02:40:53;-8.90;99.90
14248;DHT22;7208;49.826;6.004;2022-12-18T02:43:19;-8.90;99.90
14248;DHT22;7208;49.826;6.004;2022-12-18T02:45:54;-9.00;99.90
14248;DHT22;7208;49.826;6.004;2022-12-18T02:48:24;-9.10;99.90
14248;DHT22;7208;49.826;6.004;2022-12-18T02:53:45;-9.00;99.90
14248;DHT22;7208;49.826;6.004;2022-12-18T02:56:23;-8.90;99.90
14248;DHT22;7208;49.826;6.004;2022-12-18T03:06:57;-8.90;99.90
14248;DHT22;7208;49.826;6.004;2022-12-18T03:09:34;-9.00;99.90
14248;DHT22;7208;49.826;6.004;2022-12-18T03:12:31;-9.00;99.90
14248;DHT22;7208;49.826;6.004;2022-12-18T03:15:12;-9.00;99.90
14248;DHT22;7208;49.826;6.004;2022-12-18T03:17:43;-8.90;99.90
14248;DHT22;7208;49.826;6.004;2022-12-18T03:20:14;-9.00;99.90
14248;DHT22;7208;49.826;6.004;2022-12-18T03:22:42;-9.00;99.90
14248;DHT22;7208;49.826;6.004;2022-12-18T03:25:11;-8.90;99.90
14248;DHT22;7208;49.826;6.004;2022-12-18T03:27:42;-8.80;99.90
14248;DHT22;7208;49.826;6.004;2022-12-18T03:30:10;-8.70;99.90
14248;DHT22;7208;49.826;6.004;2022-12-18T03:32:56;-8.70;99.90
14248;DHT22;7208;49.826;6.004;2022-12-18T03:35:28;-8.80;99.90
14248;DHT22;7208;49.826;6.004;2022-12-18T03:37:55;-8.80;99.90
14248;DHT22;7208;49.826;6.004;2022-12-18T03:43:20;-8.80;99.90
14248;DHT22;7208;49.826;6.004;2022-12-18T03:45:58;-8.90;99.90
14248;DHT22;7208;49.826;6.004;2022-12-18T03:48:35;-8.80;99.90
14248;DHT22;7208;49.826;6.004;2022-12-18T03:51:07;-8.80;99.90
14248;DHT22;7208;49.826;6.004;2022-12-18T03:53:39;-8.90;99.90
14248;DHT22;7208;49.826;6.004;2022-12-18T03:56:08;-8.90;99.90
14248;DHT22;7208;49.826;6.004;2022-12-18T03:58:36;-8.80;99.90
14248;DHT22;7208;49.826;6.004;2022-12-18T04:01:05;-8.70;99.90
14248;DHT22;7208;49.826;6.004;2022-12-18T04:03:32;-8.70;99.90
14248;DHT22;7208;49.826;6.004;2022-12-18T04:06:00;-8.80;99.90
14248;DHT22;7208;49.826;6.004;2022-12-18T04:08:26;-8.90;99.90
14248;DHT22;7208;49.826;6.004;2022-12-18T04:10:52;-8.90;99.90
14248;DHT22;7208;49.826;6.004;2022-12-18T04:13:44;-8.70;99.90
14248;DHT22;7208;49.826;6.004;2022-12-18T04:16:10;-8.40;99.90
14248;DHT22;7208;49.826;6.004;2022-12-18T04:18:35;-8.90;99.90
14248;DHT22;7208;49.826;6.004;2022-12-18T04:21:02;-9.00;99.90
14248;DHT22;7208;49.826;6.004;2022-12-18T04:23:28;-9.00;99.90
14248;DHT22;7208;49.826;6.004;2022-12-18T04:25:53;-9.00;99.90
14248;DHT22;7208;49.826;6.004;2022-12-18T04:28:19;-9.00;99.90
14248;DHT22;7208;49.826;6.004;2022-12-18T04:30:48;-9.00;99.90
14248;DHT22;7208;49.826;6.004;2022-12-18T04:33:14;-9.00;99.90
14248;DHT22;7208;49.826;6.004;2022-12-18T04:35:42;-8.90;99.90
14248;DHT22;7208;49.826;6.004;2022-12-18T04:38:09;-8.80;99.90
14248;DHT22;7208;49.826;6.004;2022-12-18T04:40:36;-8.80;99.90
14248;DHT22;7208;49.826;6.004;2022-12-18T04:43:02;-8.80;99.90
14248;DHT22;7208;49.826;6.004;2022-12-18T04:45:27;-8.90;99.90
14248;DHT22;7208;49.826;6.004;2022-12-18T04:47:53;-9.00;99.90
14248;DHT22;7208;49.826;6.004;2022-12-18T04:50:19;-9.00;99.90
14248;DHT22;7208;49.826;6.004;2022-12-18T04:52:44;-9.00;99.90
14248;DHT22;7208;49.826;6.004;2022-12-18T04:55:10;-9.00;99.90
14248;DHT22;7208;49.826;6.004;2022-12-18T04:57:36;-9.10;99.90
14248;DHT22;7208;49.826;6.004;2022-12-18T05:00:02;-9.20;99.90
14248;DHT22;7208;49.826;6.004;2022-12-18T05:02:28;-9.30;99.90
14248;DHT22;7208;49.826;6.004;2022-12-18T05:04:53;-9.30;99.90
14248;DHT22;7208;49.826;6.004;2022-12-18T05:07:19;-9.20;99.90
14248;DHT22;7208;49.826;6.004;2022-12-18T05:09:44;-9.10;99.90
14248;DHT22;7208;49.826;6.004;2022-12-18T05:12:10;-9.10;99.90
14248;DHT22;7208;49.826;6.004;2022-12-18T05:14:36;-9.10;99.90
14248;DHT22;7208;49.826;6.004;2022-12-18T05:17:01;-9.20;99.90
14248;DHT22;7208;49.826;6.004;2022-12-18T05:19:27;-9.20;99.90
14248;DHT22;7208;49.826;6.004;2022-12-18T05:21:53;-9.10;99.90
14248;DHT22;7208;49.826;6.004;2022-12-18T05:24:18;-9.10;99.90
14248;DHT22;7208;49.826;6.004;2022-12-18T05:26:44;-9.00;99.90
14248;DHT22;7208;49.826;6.004;2022-12-18T05:29:10;-9.00;99.90
14248;DHT22;7208;49.826;6.004;2022-12-18T05:31:38;-9.10;99.90
14248;DHT22;7208;49.826;6.004;2022-12-18T05:34:04;-9.20;99.90
14248;DHT22;7208;49.826;6.004;2022-12-18T05:36:30;-9.20;99.90
14248;DHT22;7208;49.826;6.004;2022-12-18T05:38:56;-9.20;99.90
14248;DHT22;7208;49.826;6.004;2022-12-18T05:41:22;-9.30;99.90
14248;DHT22;7208;49.826;6.004;2022-12-18T05:43:47;-9.40;99.90
14248;DHT22;7208;49.826;6.004;2022-12-18T05:46:15;-9.50;99.90
14248;DHT22;7208;49.826;6.004;2022-12-18T05:48:42;-9.50;99.90
14248;DHT22;7208;49.826;6.004;2022-12-18T05:51:10;-9.50;99.90
14248;DHT22;7208;49.826;6.004;2022-12-18T05:53:37;-9.50;99.90
14248;DHT22;7208;49.826;6.004;2022-12-18T05:56:05;-9.60;99.90
14248;DHT22;7208;49.826;6.004;2022-12-18T05:58:31;-9.60;99.90
14248;DHT22;7208;49.826;6.004;2022-12-18T06:00:58;-9.50;99.90
14248;DHT22;7208;49.826;6.004;2022-12-18T06:03:24;-9.50;99.90
14248;DHT22;7208;49.826;6.004;2022-12-18T06:05:49;-9.50;99.90
14248;DHT22;7208;49.826;6.004;2022-12-18T06:08:15;-9.50;99.90
14248;DHT22;7208;49.826;6.004;2022-12-18T06:10:41;-9.40;99.90
14248;DHT22;7208;49.826;6.004;2022-12-18T06:13:07;-9.40;99.90
14248;DHT22;7208;49.826;6.004;2022-12-18T06:15:36;-9.40;99.90
14248;DHT22;7208;49.826;6.004;2022-12-18T06:18:02;-9.40;99.90
14248;DHT22;7208;49.826;6.004;2022-12-18T06:20:28;-9.40;99.90
14248;DHT22;7208;49.826;6.004;2022-12-18T06:22:53;-9.30;99.90
14248;DHT22;7208;49.826;6.004;2022-12-18T06:25:19;-9.40;99.90
14248;DHT22;7208;49.826;6.004;2022-12-18T06:27:47;-9.40;99.90
14248;DHT22;7208;49.826;6.004;2022-12-18T06:30:13;-9.40;99.90
14248;DHT22;7208;49.826;6.004;2022-12-18T06:32:39;-9.50;99.90
14248;DHT22;7208;49.826;6.004;2022-12-18T06:35:05;-9.50;99.90
14248;DHT22;7208;49.826;6.004;2022-12-18T06:37:31;-9.50;99.90
14248;DHT22;7208;49.826;6.004;2022-12-18T06:39:57;-9.60;99.90
14248;DHT22;7208;49.826;6.004;2022-12-18T06:42:24;-9.60;99.90
14248;DHT22;7208;49.826;6.004;2022-12-18T06:44:50;-9.50;99.90
14248;DHT22;7208;49.826;6.004;2022-12-18T06:47:16;-9.50;99.90
14248;DHT22;7208;49.826;6.004;2022-12-18T06:49:41;-9.40;99.90
14248;DHT22;7208;49.826;6.004;2022-12-18T06:52:08;-9.40;99.90
14248;DHT22;7208;49.826;6.004;2022-12-18T06:54:34;-9.40;99.90
14248;DHT22;7208;49.826;6.004;2022-12-18T06:57:02;-9.50;99.90
14248;DHT22;7208;49.826;6.004;2022-12-18T06:59:28;-9.50;99.90
14248;DHT22;7208;49.826;6.004;2022-12-18T07:01:54;-9.50;99.90
14248;DHT22;7208;49.826;6.004;2022-12-18T07:04:20;-9.50;99.90
14248;DHT22;7208;49.826;6.004;2022-12-18T07:06:45;-9.40;99.90
14248;DHT22;7208;49.826;6.004;2022-12-18T07:09:11;-9.40;99.90
14248;DHT22;7208;49.826;6.004;2022-12-18T07:11:37;-9.40;99.90
14248;DHT22;7208;49.826;6.004;2022-12-18T07:14:02;-9.40;99.90
14248;DHT22;7208;49.826;6.004;2022-12-18T07:16:28;-9.30;99.90
14248;DHT22;7208;49.826;6.004;2022-12-18T07:18:55;-9.30;99.90
14248;DHT22;7208;49.826;6.004;2022-12-18T07:21:21;-9.40;99.90
14248;DHT22;7208;49.826;6.004;2022-12-18T07:23:47;-9.40;99.90
14248;DHT22;7208;49.826;6.004;2022-12-18T07:26:15;-9.40;99.90
14248;DHT22;7208;49.826;6.004;2022-12-18T07:28:41;-9.40;99.90
14248;DHT22;7208;49.826;6.004;2022-12-18T07:31:09;-9.40;99.90
14248;DHT22;7208;49.826;6.004;2022-12-18T07:33:36;-9.40;99.90
14248;DHT22;7208;49.826;6.004;2022-12-18T07:36:03;-9.40;99.90
14248;DHT22;7208;49.826;6.004;2022-12-18T07:38:30;-9.40;99.90
14248;DHT22;7208;49.826;6.004;2022-12-18T07:41:08;-9.40;99.90
14248;DHT22;7208;49.826;6.004;2022-12-18T07:43:34;-9.50;99.90
14248;DHT22;7208;49.826;6.004;2022-12-18T07:46:00;-9.50;99.90
14248;DHT22;7208;49.826;6.004;2022-12-18T07:48:28;-9.50;99.90
14248;DHT22;7208;49.826;6.004;2022-12-18T07:50:57;-9.40;99.90
14248;DHT22;7208;49.826;6.004;2022-12-18T07:53:23;-9.30;99.90
14248;DHT22;7208;49.826;6.004;2022-12-18T07:55:48;-9.40;99.90
14248;DHT22;7208;49.826;6.004;2022-12-18T07:58:14;-9.30;99.90
14248;DHT22;7208;49.826;6.004;2022-12-18T08:00:40;-9.30;99.90
14248;DHT22;7208;49.826;6.004;2022-12-18T08:03:05;-9.20;99.90
14248;DHT22;7208;49.826;6.004;2022-12-18T08:05:31;-9.10;99.90
14248;DHT22;7208;49.826;6.004;2022-12-18T08:07:58;-9.00;99.90
14248;DHT22;7208;49.826;6.004;2022-12-18T08:10:23;-8.90;99.90
14248;DHT22;7208;49.826;6.004;2022-12-18T08:12:50;-8.90;99.90
14248;DHT22;7208;49.826;6.004;2022-12-18T08:15:16;-8.90;99.90
14248;DHT22;7208;49.826;6.004;2022-12-18T08:17:42;-8.80;99.90
14248;DHT22;7208;49.826;6.004;2022-12-18T08:20:08;-8.60;99.90
14248;DHT22;7208;49.826;6.004;2022-12-18T08:22:35;-8.80;99.90
14248;DHT22;7208;49.826;6.004;2022-12-18T08:25:01;-8.70;99.90
14248;DHT22;7208;49.826;6.004;2022-12-18T08:27:27;-9.10;99.90
14248;DHT22;7208;49.826;6.004;2022-12-18T08:29:52;-8.80;99.90
14248;DHT22;7208;49.826;6.004;2022-12-18T08:32:18;-8.70;99.90
14248;DHT22;7208;49.826;6.004;2022-12-18T08:34:43;-8.50;99.90
14248;DHT22;7208;49.826;6.004;2022-12-18T08:37:09;-8.50;99.90
14248;DHT22;7208;49.826;6.004;2022-12-18T08:39:35;-8.40;99.90
14248;DHT22;7208;49.826;6.004;2022-12-18T08:42:00;-8.40;99.90
14248;DHT22;7208;49.826;6.004;2022-12-18T08:44:44;-8.40;99.90
14248;DHT22;7208;49.826;6.004;2022-12-18T08:47:10;-8.30;99.90
14248;DHT22;7208;49.826;6.004;2022-12-18T08:49:36;-8.30;99.90
14248;DHT22;7208;49.826;6.004;2022-12-18T08:52:02;-8.20;99.90
14248;DHT22;7208;49.826;6.004;2022-12-18T08:54:28;-8.20;99.90
14248;DHT22;7208;49.826;6.004;2022-12-18T08:56:54;-8.10;99.90
14248;DHT22;7208;49.826;6.004;2022-12-18T08:59:20;-8.00;99.90
14248;DHT22;7208;49.826;6.004;2022-12-18T09:01:46;-8.00;99.90
14248;DHT22;7208;49.826;6.004;2022-12-18T09:04:12;-7.80;99.90
14248;DHT22;7208;49.826;6.004;2022-12-18T09:06:39;-7.60;99.90
14248;DHT22;7208;49.826;6.004;2022-12-18T09:09:05;-7.50;99.90
14248;DHT22;7208;49.826;6.004;2022-12-18T09:11:32;-7.40;99.90
14248;DHT22;7208;49.826;6.004;2022-12-18T09:14:00;-7.30;99.90
14248;DHT22;7208;49.826;6.004;2022-12-18T09:16:27;-7.20;99.90
14248;DHT22;7208;49.826;6.004;2022-12-18T09:18:54;-7.10;99.90
14248;DHT22;7208;49.826;6.004;2022-12-18T09:21:25;-6.90;99.90
14248;DHT22;7208;49.826;6.004;2022-12-18T09:23:51;-6.80;99.90
14248;DHT22;7208;49.826;6.004;2022-12-18T09:26:17;-6.60;99.90
14248;DHT22;7208;49.826;6.004;2022-12-18T09:28:43;-6.40;99.90
14248;DHT22;7208;49.826;6.004;2022-12-18T09:31:10;-6.00;99.90
14248;DHT22;7208;49.826;6.004;2022-12-18T09:33:37;-6.20;99.90
14248;DHT22;7208;49.826;6.004;2022-12-18T09:36:04;-6.00;99.90
14248;DHT22;7208;49.826;6.004;2022-12-18T09:38:30;-5.80;99.90
14248;DHT22;7208;49.826;6.004;2022-12-18T09:41:02;-5.70;99.90
14248;DHT22;7208;49.826;6.004;2022-12-18T09:43:56;-5.50;99.90
14248;DHT22;7208;49.826;6.004;2022-12-18T09:46:31;-5.40;99.90
14248;DHT22;7208;49.826;6.004;2022-12-18T09:49:05;-5.30;99.90
14248;DHT22;7208;49.826;6.004;2022-12-18T09:51:51;-5.20;99.90
14248;DHT22;7208;49.826;6.004;2022-12-18T09:54:25;-5.10;99.90
14248;DHT22;7208;49.826;6.004;2022-12-18T09:56:54;-5.00;99.90
14248;DHT22;7208;49.826;6.004;2022-12-18T09:59:24;-4.90;99.90
14248;DHT22;7208;49.826;6.004;2022-12-18T10:01:50;-4.80;99.90
14248;DHT22;7208;49.826;6.004;2022-12-18T10:04:16;-4.80;99.90
14248;DHT22;7208;49.826;6.004;2022-12-18T10:15:02;-4.80;99.90
14248;DHT22;7208;49.826;6.004;2022-12-18T10:20:46;-4.60;99.90
14248;DHT22;7208;49.826;6.004;2022-12-18T10:26:12;-4.40;99.90
14248;DHT22;7208;49.826;6.004;2022-12-18T10:28:40;-4.30;99.90
14248;DHT22;7208;49.826;6.004;2022-12-18T10:31:07;-4.10;99.90
14248;DHT22;7208;49.826;6.004;2022-12-18T10:33:38;-4.00;99.90
14248;DHT22;7208;49.826;6.004;2022-12-18T10:36:04;-3.80;99.90
14248;DHT22;7208;49.826;6.004;2022-12-18T10:38:32;-3.70;99.90
14248;DHT22;7208;49.826;6.004;2022-12-18T10:41:24;-3.30;99.90
14248;DHT22;7208;49.826;6.004;2022-12-18T10:46:37;-3.50;99.90
14248;DHT22;7208;49.826;6.004;2022-12-18T10:49:02;-3.40;99.90
14248;DHT22;7208;49.826;6.004;2022-12-18T10:51:32;-3.10;99.90
14248;DHT22;7208;49.826;6.004;2022-12-18T10:54:07;-3.30;99.90
14248;DHT22;7208;49.826;6.004;2022-12-18T10:56:38;-3.00;99.90
14248;DHT22;7208;49.826;6.004;2022-12-18T10:59:06;-3.20;99.90
14248;DHT22;7208;49.826;6.004;2022-12-18T11:01:58;-3.00;99.90
14248;DHT22;7208;49.826;6.004;2022-12-18T11:04:29;-3.10;99.90
14248;DHT22;7208;49.826;6.004;2022-12-18T11:07:04;-3.00;99.90
14248;DHT22;7208;49.826;6.004;2022-12-18T11:09:40;-3.00;99.90
14248;DHT22;7208;49.826;6.004;2022-12-18T11:12:18;-2.90;99.90
14248;DHT22;7208;49.826;6.004;2022-12-18T11:14:47;-2.70;99.90
14248;DHT22;7208;49.826;6.004;2022-12-18T11:17:20;-2.60;99.90
14248;DHT22;7208;49.826;6.004;2022-12-18T11:20:03;-2.60;99.90
14248;DHT22;7208;49.826;6.004;2022-12-18T11:22:35;-2.50;99.90
14248;DHT22;7208;49.826;6.004;2022-12-18T11:27:51;-2.50;99.90
14248;DHT22;7208;49.826;6.004;2022-12-18T11:30:21;-2.50;99.90
14248;DHT22;7208;49.826;6.004;2022-12-18T11:32:50;-2.50;99.90
14248;DHT22;7208;49.826;6.004;2022-12-18T11:38:12;-2.30;99.90
14248;DHT22;7208;49.826;6.004;2022-12-18T11:40:44;-2.40;99.90
14248;DHT22;7208;49.826;6.004;2022-12-18T11:43:16;-2.30;99.90
14248;DHT22;7208;49.826;6.004;2022-12-18T11:45:54;-2.20;99.90
14248;DHT22;7208;49.826;6.004;2022-12-18T11:48:22;-2.40;99.90
14248;DHT22;7208;49.826;6.004;2022-12-18T11:50:57;-2.60;99.90
14248;DHT22;7208;49.826;6.004;2022-12-18T11:53:25;-2.50;99.90
14248;DHT22;7208;49.826;6.004;2022-12-18T11:58:46;-2.20;99.90
14248;DHT22;7208;49.826;6.004;2022-12-18T12:19:03;-2.40;99.90
14248;DHT22;7208;49.826;6.004;2022-12-18T12:26:52;-2.20;99.90
14248;DHT22;7208;49.826;6.004;2022-12-18T12:40:27;-2.10;99.90
14248;DHT22;7208;49.826;6.004;2022-12-18T12:42:59;-2.10;99.90
14248;DHT22;7208;49.826;6.004;2022-12-18T12:45:47;-2.40;99.90
14248;DHT22;7208;49.826;6.004;2022-12-18T12:48:36;-2.40;99.90
14248;DHT22;7208;49.826;6.004;2022-12-18T12:51:37;-2.20;99.90
14248;DHT22;7208;49.826;6.004;2022-12-18T12:54:08;-2.50;99.90
14248;DHT22;7208;49.826;6.004;2022-12-18T13:05:18;-2.30;99.90
14248;DHT22;7208;49.826;6.004;2022-12-18T13:07:59;-2.20;99.90
14248;DHT22;7208;49.826;6.004;2022-12-18T13:16:07;-2.10;99.90
14248;DHT22;7208;49.826;6.004;2022-12-18T13:18:33;-2.20;99.90
14248;DHT22;7208;49.826;6.004;2022-12-18T13:25:57;-2.50;99.90
14248;DHT22;7208;49.826;6.004;2022-12-18T13:36:27;-2.20;99.90
14248;DHT22;7208;49.826;6.004;2022-12-18T13:41:53;-2.50;99.90
14248;DHT22;7208;49.826;6.004;2022-12-18T13:44:35;-2.60;99.90
14248;DHT22;7208;49.826;6.004;2022-12-18T13:47:03;-2.60;99.90
14248;DHT22;7208;49.826;6.004;2022-12-18T13:49:39;-2.60;99.90
14248;DHT22;7208;49.826;6.004;2022-12-18T13:52:18;-2.60;99.90
14248;DHT22;7208;49.826;6.004;2022-12-18T13:54:49;-2.50;99.90
14248;DHT22;7208;49.826;6.004;2022-12-18T13:57:36;-2.30;99.90
14248;DHT22;7208;49.826;6.004;2022-12-18T14:00:25;-2.70;99.90
14248;DHT22;7208;49.826;6.004;2022-12-18T14:02:52;-2.70;99.90
14248;DHT22;7208;49.826;6.004;2022-12-18T14:05:30;-2.80;99.90
14248;DHT22;7208;49.826;6.004;2022-12-18T14:08:21;-3.00;99.90
14248;DHT22;7208;49.826;6.004;2022-12-18T14:10:47;-3.00;99.90
14248;DHT22;7208;49.826;6.004;2022-12-18T14:13:39;-2.90;99.90
14248;DHT22;7208;49.826;6.004;2022-12-18T14:16:07;-2.90;99.90
14248;DHT22;7208;49.826;6.004;2022-12-18T14:18:50;-2.90;99.90
14248;DHT22;7208;49.826;6.004;2022-12-18T14:21:27;-3.00;99.90
14248;DHT22;7208;49.826;6.004;2022-12-18T14:26:33;-3.00;99.90
14248;DHT22;7208;49.826;6.004;2022-12-18T14:29:09;-3.00;99.90
14248;DHT22;7208;49.826;6.004;2022-12-18T14:31:42;-3.10;99.90
14248;DHT22;7208;49.826;6.004;2022-12-18T14:34:17;-3.10;99.90
14248;DHT22;7208;49.826;6.004;2022-12-18T14:36:53;-3.10;99.90
14248;DHT22;7208;49.826;6.004;2022-12-18T14:39:21;-3.10;99.90
14248;DHT22;7208;49.826;6.004;2022-12-18T14:41:48;-3.20;99.90
14248;DHT22;7208;49.826;6.004;2022-12-18T14:44:15;-2.90;99.90
14248;DHT22;7208;49.826;6.004;2022-12-18T14:46:43;-2.90;99.90
14248;DHT22;7208;49.826;6.004;2022-12-18T14:49:29;-3.20;99.90
14248;DHT22;7208;49.826;6.004;2022-12-18T14:51:59;-3.00;99.90
14248;DHT22;7208;49.826;6.004;2022-12-18T14:54:27;-3.30;99.90
14248;DHT22;7208;49.826;6.004;2022-12-18T14:56:59;-3.30;99.90
14248;DHT22;7208;49.826;6.004;2022-12-18T14:59:27;-3.30;99.90
14248;DHT22;7208;49.826;6.004;2022-12-18T15:02:25;-3.40;99.90
14248;DHT22;7208;49.826;6.004;2022-12-18T15:07:46;-3.40;99.90
14248;DHT22;7208;49.826;6.004;2022-12-18T15:10:17;-3.50;99.90
14248;DHT22;7208;49.826;6.004;2022-12-18T15:13:07;-3.50;99.90
14248;DHT22;7208;49.826;6.004;2022-12-18T15:20:54;-3.60;99.90
14248;DHT22;7208;49.826;6.004;2022-12-18T15:23:35;-3.60;99.90
14248;DHT22;7208;49.826;6.004;2022-12-18T15:26:05;-3.60;99.90
14248;DHT22;7208;49.826;6.004;2022-12-18T15:33:42;-3.70;99.90
14248;DHT22;7208;49.826;6.004;2022-12-18T15:36:11;-3.80;99.90
14248;DHT22;7208;49.826;6.004;2022-12-18T15:38:37;-3.80;99.90
14248;DHT22;7208;49.826;6.004;2022-12-18T15:41:03;-3.80;99.90
14248;DHT22;7208;49.826;6.004;2022-12-18T15:43:29;-3.80;99.90
14248;DHT22;7208;49.826;6.004;2022-12-18T15:48:27;-3.60;99.90
14248;DHT22;7208;49.826;6.004;2022-12-18T15:50:55;-3.80;99.90
14248;DHT22;7208;49.826;6.004;2022-12-18T15:53:23;-3.80;99.90
14248;DHT22;7208;49.826;6.004;2022-12-18T15:55:49;-3.70;99.90
14248;DHT22;7208;49.826;6.004;2022-12-18T15:58:33;-3.70;99.90
14248;DHT22;7208;49.826;6.004;2022-12-18T16:00:59;-3.60;99.90
14248;DHT22;7208;49.826;6.004;2022-12-18T16:03:26;-3.70;99.90
14248;DHT22;7208;49.826;6.004;2022-12-18T16:05:51;-3.70;99.90
14248;DHT22;7208;49.826;6.004;2022-12-18T16:08:17;-3.70;99.90
14248;DHT22;7208;49.826;6.004;2022-12-18T16:10:43;-3.70;99.90
14248;DHT22;7208;49.826;6.004;2022-12-18T16:13:13;-3.70;99.90
14248;DHT22;7208;49.826;6.004;2022-12-18T16:15:39;-3.70;99.90
14248;DHT22;7208;49.826;6.004;2022-12-18T16:18:05;-3.70;99.90
14248;DHT22;7208;49.826;6.004;2022-12-18T16:20:31;-3.70;99.90
14248;DHT22;7208;49.826;6.004;2022-12-18T16:22:56;-3.70;99.90
14248;DHT22;7208;49.826;6.004;2022-12-18T16:25:27;-3.70;99.90
14248;DHT22;7208;49.826;6.004;2022-12-18T16:27:54;-3.50;99.90
14248;DHT22;7208;49.826;6.004;2022-12-18T16:30:30;-3.70;99.90
14248;DHT22;7208;49.826;6.004;2022-12-18T16:32:57;-3.70;99.90
14248;DHT22;7208;49.826;6.004;2022-12-18T16:35:25;-3.50;99.90
14248;DHT22;7208;49.826;6.004;2022-12-18T16:37:51;-3.40;99.90
14248;DHT22;7208;49.826;6.004;2022-12-18T16:40:18;-3.70;99.90
14248;DHT22;7208;49.826;6.004;2022-12-18T16:42:45;-3.60;99.90
14248;DHT22;7208;49.826;6.004;2022-12-18T16:45:14;-3.60;99.90
14248;DHT22;7208;49.826;6.004;2022-12-18T16:47:40;-3.60;99.90
14248;DHT22;7208;49.826;6.004;2022-12-18T16:50:06;-3.30;99.90
14248;DHT22;7208;49.826;6.004;2022-12-18T16:52:33;-3.60;99.90
14248;DHT22;7208;49.826;6.004;2022-12-18T16:54:58;-3.50;99.90
14248;DHT22;7208;49.826;6.004;2022-12-18T16:57:24;-3.40;99.90
14248;DHT22;7208;49.826;6.004;2022-12-18T16:59:50;-3.20;99.90
14248;DHT22;7208;49.826;6.004;2022-12-18T17:02:23;-3.50;99.90
14248;DHT22;7208;49.826;6.004;2022-12-18T17:04:49;-3.50;99.90
14248;DHT22;7208;49.826;6.004;2022-12-18T17:07:15;-3.50;99.90
14248;DHT22;7208;49.826;6.004;2022-12-18T17:09:41;-3.50;99.90
14248;DHT22;7208;49.826;6.004;2022-12-18T17:12:07;-3.50;99.90
14248;DHT22;7208;49.826;6.004;2022-12-18T17:14:33;-3.50;99.90
14248;DHT22;7208;49.826;6.004;2022-12-18T17:16:59;-3.50;99.90
14248;DHT22;7208;49.826;6.004;2022-12-18T17:19:25;-3.40;99.90
14248;DHT22;7208;49.826;6.004;2022-12-18T17:21:52;-3.40;99.90
14248;DHT22;7208;49.826;6.004;2022-12-18T17:24:19;-3.40;99.90
14248;DHT22;7208;49.826;6.004;2022-12-18T17:26:45;-3.40;99.90
14248;DHT22;7208;49.826;6.004;2022-12-18T17:29:16;-3.40;99.90
14248;DHT22;7208;49.826;6.004;2022-12-18T17:31:43;-3.40;99.90
14248;DHT22;7208;49.826;6.004;2022-12-18T17:34:12;-3.00;99.90
14248;DHT22;7208;49.826;6.004;2022-12-18T17:36:38;-3.40;99.90
14248;DHT22;7208;49.826;6.004;2022-12-18T17:39:05;-3.40;99.90
14248;DHT22;7208;49.826;6.004;2022-12-18T17:41:32;-3.30;99.90
14248;DHT22;7208;49.826;6.004;2022-12-18T17:44:01;-3.30;99.90
14248;DHT22;7208;49.826;6.004;2022-12-18T17:46:29;-3.30;99.90
14248;DHT22;7208;49.826;6.004;2022-12-18T17:48:57;-3.30;99.90
14248;DHT22;7208;49.826;6.004;2022-12-18T17:51:22;-3.30;99.90
14248;DHT22;7208;49.826;6.004;2022-12-18T17:53:48;-3.10;99.90
14248;DHT22;7208;49.826;6.004;2022-12-18T17:56:17;-3.20;99.90
14248;DHT22;7208;49.826;6.004;2022-12-18T17:58:43;-3.30;99.90
14248;DHT22;7208;49.826;6.004;2022-12-18T18:01:12;-3.10;99.90
14248;DHT22;7208;49.826;6.004;2022-12-18T18:03:38;-3.20;99.90
14248;DHT22;7208;49.826;6.004;2022-12-18T18:06:05;-3.20;99.90
14248;DHT22;7208;49.826;6.004;2022-12-18T18:08:33;-3.20;99.90
14248;DHT22;7208;49.826;6.004;2022-12-18T18:11:04;-3.20;99.90
14248;DHT22;7208;49.826;6.004;2022-12-18T18:13:50;-3.10;99.90
14248;DHT22;7208;49.826;6.004;2022-12-18T18:18:59;-3.10;99.90
14248;DHT22;7208;49.826;6.004;2022-12-18T18:21:25;-3.10;99.90